Time;durP1;ratioP1;P1;durP2;ratioP2;P2;SDS_P1;SDS_P2;PMS_P1;PMS_P2;Temp;Humidity;BMP_temperature;BMP_pressure;BME280_temperature;BME280_humidity;BME280_pressure;Samples;Min_cycle;Max_cycle;Signal;HPM_P1;HPM_P2
2022/04/05 00:00:49;;;;;;;3.53;2.00;;;;;;;;;;4983903;28;20696;-60
2022/04/05 00:03:14;;;;;;;4.28;2.20;;;;;;;;;;4980051;28;20252;-60
2022/04/05 00:05:40;;;;;;;3.97;2.38;;;;;;;;;;4993081;28;20621;-60
2022/04/05 00:08:05;;;;;;;4.22;2.40;;;;;;;;;;4995141;28;20726;-60
2022/04/05 00:10:30;;;;;;;3.05;2.00;;;;;;;;;;4996834;28;20212;-59
2022/04/05 00:12:58;;;;;;;4.32;2.10;;;;;;;;;;5002094;28;20318;-60
2022/04/05 00:15:23;;;;;;;4.63;2.00;;;;;;;;;;5002640;28;20282;-59
2022/04/05 00:17:48;;;;;;;2.78;1.60;;;;;;;;;;5001855;28;20727;-59
2022/04/05 00:20:13;;;;;;;1.80;1.30;;;;;;;;;;5002530;28;20282;-59
2022/04/05 00:22:39;;;;;;;3.90;1.60;;;;;;;;;;5002686;28;20215;-60
2022/04/05 00:25:04;;;;;;;1.83;1.30;;;;;;;;;;5001900;28;20300;-59
2022/04/05 00:27:30;;;;;;;2.47;1.45;;;;;;;;;;4986224;28;20248;-59
2022/04/05 00:29:55;;;;;;;2.63;1.20;;;;;;;;;;4975427;28;20546;-60
2022/04/05 00:32:20;;;;;;;2.08;1.17;;;;;;;;;;4975019;28;20307;-60
2022/04/05 00:34:46;;;;;;;1.73;1.30;;;;;;;;;;4982314;28;20268;-60
2022/04/05 00:37:11;;;;;;;4.15;1.50;;;;;;;;;;4999431;28;20275;-60
2022/04/05 00:39:36;;;;;;;3.67;1.40;;;;;;;;;;5001891;28;20547;-59
2022/04/05 00:42:01;;;;;;;2.40;1.20;;;;;;;;;;5002176;28;20217;-60
2022/04/05 00:44:27;;;;;;;2.88;1.13;;;;;;;;;;5002852;28;20204;-60
2022/04/05 00:46:52;;;;;;;2.67;1.20;;;;;;;;;;5000225;28;20236;-60
2022/04/05 00:49:23;;;;;;;3.40;0.90;;;;;;;;;;4976204;28;20271;-60
2022/04/05 00:51:48;;;;;;;2.65;1.20;;;;;;;;;;4997687;28;20229;-59
2022/04/05 00:54:14;;;;;;;2.30;1.00;;;;;;;;;;4997353;28;20785;-60
2022/04/05 00:56:39;;;;;;;1.48;0.93;;;;;;;;;;5003606;28;20248;-59
2022/04/05 00:59:06;;;;;;;3.25;1.23;;;;;;;;;;5001007;28;20703;-60
2022/04/05 01:01:32;;;;;;;3.42;0.90;;;;;;;;;;4993154;28;20261;-59
2022/04/05 01:03:57;;;;;;;1.67;0.70;;;;;;;;;;5006441;28;20228;-59
2022/04/05 01:06:30;;;;;;;3.90;0.90;;;;;;;;;;4997872;28;20225;-59
2022/04/05 01:08:56;;;;;;;1.48;0.77;;;;;;;;;;5006169;28;20224;-60
2022/04/05 01:11:21;;;;;;;1.88;0.82;;;;;;;;;;5002717;28;20208;-60
2022/04/05 01:13:47;;;;;;;1.00;0.70;;;;;;;;;;4997852;28;20828;-60
2022/04/05 01:16:12;;;;;;;3.38;0.80;;;;;;;;;;4997544;28;20208;-60
2022/04/05 01:18:38;;;;;;;2.95;0.70;;;;;;;;;;4984727;28;20825;-60
2022/04/05 01:21:03;;;;;;;1.75;0.90;;;;;;;;;;4985581;28;20232;-60
2022/04/05 01:23:28;;;;;;;1.13;0.70;;;;;;;;;;4986480;28;20220;-59
2022/04/05 01:25:55;;;;;;;1.90;0.80;;;;;;;;;;4987153;28;20673;-60
2022/04/05 01:28:20;;;;;;;2.80;0.90;;;;;;;;;;4985226;28;20236;-59
2022/04/05 01:30:45;;;;;;;2.35;0.80;;;;;;;;;;4986932;28;20209;-59
2022/04/05 01:33:10;;;;;;;1.77;0.80;;;;;;;;;;4985971;28;20221;-59
2022/04/05 01:35:36;;;;;;;2.03;0.90;;;;;;;;;;4977976;28;20237;-60
2022/04/05 01:38:01;;;;;;;2.92;0.82;;;;;;;;;;4978165;28;20599;-60
2022/04/05 01:40:27;;;;;;;1.73;0.80;;;;;;;;;;4979409;28;20295;-59
2022/04/05 01:42:52;;;;;;;3.08;0.88;;;;;;;;;;5003491;28;21071;-59
2022/04/05 01:45:17;;;;;;;1.15;0.70;;;;;;;;;;5005581;28;20231;-60
2022/04/05 01:47:43;;;;;;;2.88;0.90;;;;;;;;;;4997219;28;20343;-59
2022/04/05 01:50:08;;;;;;;2.45;0.90;;;;;;;;;;4985265;28;20218;-59
2022/04/05 01:52:33;;;;;;;4.78;0.90;;;;;;;;;;4986233;28;20229;-60
2022/04/05 01:54:59;;;;;;;2.97;1.00;;;;;;;;;;4985957;28;20225;-59
2022/04/05 01:57:24;;;;;;;1.88;0.90;;;;;;;;;;4980224;28;20268;-59
2022/04/05 01:59:50;;;;;;;2.90;1.02;;;;;;;;;;4977846;28;20213;-60
2022/04/05 02:02:15;;;;;;;1.75;0.98;;;;;;;;;;4977277;28;20260;-60
2022/04/05 02:04:41;;;;;;;2.30;1.00;;;;;;;;;;4982341;28;20714;-59
2022/04/05 02:07:13;;;;;;;2.63;0.80;;;;;;;;;;5003193;28;20228;-60
2022/04/05 02:09:38;;;;;;;1.67;0.80;;;;;;;;;;5003028;28;20220;-60
2022/04/05 02:12:04;;;;;;;2.70;1.00;;;;;;;;;;4989489;28;20576;-60
2022/04/05 02:14:29;;;;;;;3.25;1.00;;;;;;;;;;5004545;28;21164;-60
2022/04/05 02:16:54;;;;;;;4.43;1.10;;;;;;;;;;5004586;28;20208;-60
2022/04/05 02:19:20;;;;;;;2.45;1.10;;;;;;;;;;4992112;28;20228;-60
2022/04/05 02:21:45;;;;;;;1.02;0.70;;;;;;;;;;4997265;28;20742;-60
2022/04/05 02:24:10;;;;;;;2.60;1.05;;;;;;;;;;4995396;28;20224;-60
2022/04/05 02:26:36;;;;;;;5.22;1.20;;;;;;;;;;4998625;28;21064;-60
2022/04/05 02:29:02;;;;;;;2.42;0.70;;;;;;;;;;4987507;28;20243;-60
2022/04/05 02:31:28;;;;;;;3.40;0.90;;;;;;;;;;4985322;28;20232;-60
2022/04/05 02:33:53;;;;;;;3.67;1.20;;;;;;;;;;4985159;28;20557;-60
2022/04/05 02:36:18;;;;;;;2.63;0.90;;;;;;;;;;4984864;28;20543;-60
2022/04/05 02:38:43;;;;;;;3.67;1.10;;;;;;;;;;4984882;28;20231;-60
2022/04/05 02:41:09;;;;;;;2.33;1.08;;;;;;;;;;5002456;28;20675;-60
2022/04/05 02:43:34;;;;;;;2.47;1.00;;;;;;;;;;4996946;28;20755;-59
2022/04/05 02:45:59;;;;;;;3.95;1.20;;;;;;;;;;4995760;28;20621;-59
2022/04/05 02:48:25;;;;;;;3.40;1.20;;;;;;;;;;4982558;28;20217;-60
2022/04/05 02:50:50;;;;;;;2.05;1.10;;;;;;;;;;4984007;28;20633;-59
2022/04/05 02:53:15;;;;;;;5.18;1.40;;;;;;;;;;4983750;28;20298;-60
2022/04/05 02:55:41;;;;;;;2.90;1.38;;;;;;;;;;4984731;28;20233;-59
2022/04/05 02:58:07;;;;;;;2.53;1.40;;;;;;;;;;5000798;28;20219;-60
2022/04/05 03:00:32;;;;;;;3.28;1.48;;;;;;;;;;4984151;28;20205;-60
2022/04/05 03:02:58;;;;;;;6.05;1.67;;;;;;;;;;4985189;28;20225;-60
2022/04/05 03:05:24;;;;;;;3.35;1.60;;;;;;;;;;4977618;28;20599;-60
2022/04/05 03:07:49;;;;;;;3.88;1.58;;;;;;;;;;4990493;28;20275;-60
2022/04/05 03:10:14;;;;;;;4.03;1.60;;;;;;;;;;4976645;28;20209;-60
2022/04/05 03:12:40;;;;;;;2.80;1.70;;;;;;;;;;4980054;28;20208;-59
2022/04/05 03:15:06;;;;;;;4.40;1.80;;;;;;;;;;4984325;28;20245;-60
2022/04/05 03:17:32;;;;;;;2.38;1.58;;;;;;;;;;5003730;28;20219;-60
2022/04/05 03:19:58;;;;;;;2.50;1.50;;;;;;;;;;5003527;28;21275;-60
2022/04/05 03:22:24;;;;;;;3.10;1.50;;;;;;;;;;5003313;28;20330;-60
2022/04/05 03:24:49;;;;;;;2.63;1.52;;;;;;;;;;5003602;28;20303;-59
2022/04/05 03:27:14;;;;;;;4.53;2.28;;;;;;;;;;4994160;28;20213;-60
2022/04/05 03:29:39;;;;;;;2.42;1.35;;;;;;;;;;4976852;28;20274;-60
2022/04/05 03:32:05;;;;;;;4.03;1.83;;;;;;;;;;4976159;28;20822;-60
2022/04/05 03:34:30;;;;;;;3.83;1.52;;;;;;;;;;4977626;28;20237;-60
2022/04/05 03:36:56;;;;;;;4.35;1.83;;;;;;;;;;4984215;28;20209;-60
2022/04/05 03:39:21;;;;;;;3.00;1.67;;;;;;;;;;4983987;28;20657;-60
2022/04/05 03:41:46;;;;;;;2.83;1.60;;;;;;;;;;4983785;28;20219;-60
2022/04/05 03:44:11;;;;;;;4.20;1.75;;;;;;;;;;5002575;28;21284;-60
2022/04/05 03:46:37;;;;;;;1.85;1.50;;;;;;;;;;5003463;28;20639;-60
2022/04/05 03:49:02;;;;;;;3.78;1.35;;;;;;;;;;4983070;28;20723;-60
2022/04/05 03:51:28;;;;;;;3.45;1.90;;;;;;;;;;4976052;28;20228;-60
2022/04/05 03:53:54;;;;;;;4.10;1.80;;;;;;;;;;4976084;28;20235;-59
2022/04/05 03:56:20;;;;;;;4.13;1.80;;;;;;;;;;4994409;28;20243;-60
2022/04/05 03:58:45;;;;;;;3.60;1.80;;;;;;;;;;4993788;28;20300;-60
2022/04/05 04:01:10;;;;;;;5.07;2.00;;;;;;;;;;4985248;28;20213;-59
2022/04/05 04:03:35;;;;;;;5.00;1.90;;;;;;;;;;4983552;28;20616;-60
2022/04/05 04:06:01;;;;;;;2.83;1.77;;;;;;;;;;5002411;28;20208;-60
2022/04/05 04:08:26;;;;;;;4.30;1.90;;;;;;;;;;5003210;28;20267;-60
2022/04/05 04:10:52;;;;;;;3.92;2.08;;;;;;;;;;5002543;28;20248;-60
2022/04/05 04:13:17;;;;;;;6.07;2.20;;;;;;;;;;4998961;28;20513;-59
2022/04/05 04:15:42;;;;;;;3.97;1.90;;;;;;;;;;4994839;28;20251;-59
2022/04/05 04:18:08;;;;;;;3.67;2.03;;;;;;;;;;4993707;28;20794;-59
2022/04/05 04:20:33;;;;;;;7.97;2.30;;;;;;;;;;4998188;28;20251;-60
2022/04/05 04:22:58;;;;;;;5.40;2.38;;;;;;;;;;5002249;28;20205;-60
2022/04/05 04:25:24;;;;;;;4.65;2.67;;;;;;;;;;5000245;28;20259;-60
2022/04/05 04:27:49;;;;;;;3.95;2.30;;;;;;;;;;4991890;28;20217;-60
2022/04/05 04:30:14;;;;;;;5.90;2.78;;;;;;;;;;4982322;28;20348;-60
2022/04/05 04:32:39;;;;;;;4.22;2.45;;;;;;;;;;4983722;28;20212;-60
2022/04/05 04:35:05;;;;;;;4.55;2.35;;;;;;;;;;4981002;28;20233;-60
2022/04/05 04:37:30;;;;;;;4.57;2.85;;;;;;;;;;4975430;28;20706;-60
2022/04/05 04:39:55;;;;;;;5.68;2.70;;;;;;;;;;4992597;28;20262;-60
2022/04/05 04:42:21;;;;;;;5.45;2.65;;;;;;;;;;4976300;28;20292;-59
2022/04/05 04:44:46;;;;;;;5.70;2.75;;;;;;;;;;4982534;28;20293;-60
2022/04/05 04:47:11;;;;;;;5.55;2.90;;;;;;;;;;4997646;28;20575;-60
2022/04/05 04:49:37;;;;;;;6.40;3.10;;;;;;;;;;4983248;28;20224;-60
2022/04/05 04:52:02;;;;;;;7.18;3.10;;;;;;;;;;4982330;28;20710;-60
2022/04/05 04:54:28;;;;;;;5.88;3.30;;;;;;;;;;4982975;28;20248;-60
2022/04/05 04:56:53;;;;;;;5.63;3.00;;;;;;;;;;4983096;28;20217;-60
2022/04/05 04:59:18;;;;;;;6.30;3.38;;;;;;;;;;4976333;28;20900;-60
2022/04/05 05:01:43;;;;;;;10.40;3.90;;;;;;;;;;4974821;28;20221;-60
2022/04/05 05:04:09;;;;;;;5.78;3.30;;;;;;;;;;4975628;28;20684;-60
2022/04/05 05:06:34;;;;;;;6.38;3.42;;;;;;;;;;4983339;28;20225;-60
2022/04/05 05:08:59;;;;;;;7.10;3.35;;;;;;;;;;4997476;28;20715;-59
2022/04/05 05:11:25;;;;;;;6.30;3.50;;;;;;;;;;4983435;28;20232;-59
2022/04/05 05:13:50;;;;;;;6.57;4.28;;;;;;;;;;4982467;28;20549;-58
2022/04/05 05:16:15;;;;;;;7.20;4.40;;;;;;;;;;4982075;28;20435;-59
2022/04/05 05:18:41;;;;;;;6.75;4.35;;;;;;;;;;4983195;28;20213;-60
2022/04/05 05:21:06;;;;;;;8.07;4.55;;;;;;;;;;4977853;28;20209;-60
2022/04/05 05:23:31;;;;;;;8.10;4.60;;;;;;;;;;4971971;28;20268;-59
2022/04/05 05:25:56;;;;;;;7.10;4.60;;;;;;;;;;4974417;28;20205;-60
2022/04/05 05:28:22;;;;;;;7.47;4.60;;;;;;;;;;4977542;28;20217;-60
2022/04/05 05:30:47;;;;;;;9.40;4.53;;;;;;;;;;4983104;28;20607;-60
2022/04/05 05:33:13;;;;;;;6.75;4.63;;;;;;;;;;4982156;28;20209;-60
2022/04/05 05:35:38;;;;;;;9.60;6.03;;;;;;;;;;4983898;28;20328;-60
2022/04/05 05:38:03;;;;;;;9.15;5.40;;;;;;;;;;4985761;28;20679;-60
2022/04/05 05:40:29;;;;;;;10.75;6.07;;;;;;;;;;4987905;28;20209;-60
2022/04/05 05:42:57;;;;;;;9.23;6.00;;;;;;;;;;4985769;28;20672;-60
2022/04/05 05:45:23;;;;;;;12.13;7.13;;;;;;;;;;4976431;28;20607;-60
2022/04/05 05:47:48;;;;;;;10.00;6.88;;;;;;;;;;4978387;28;20213;-59
2022/04/05 05:50:14;;;;;;;9.90;5.43;;;;;;;;;;4979089;28;20295;-59
2022/04/05 05:52:40;;;;;;;10.57;7.20;;;;;;;;;;4985786;28;20655;-59
2022/04/05 05:55:07;;;;;;;10.55;7.88;;;;;;;;;;5003725;28;20605;-60
2022/04/05 05:57:32;;;;;;;10.13;7.65;;;;;;;;;;5005798;28;20262;-60
2022/04/05 05:59:58;;;;;;;11.23;7.60;;;;;;;;;;4987332;28;20209;-60
2022/04/05 06:02:23;;;;;;;10.48;7.55;;;;;;;;;;4984661;28;20213;-60
2022/04/05 06:04:48;;;;;;;12.70;8.02;;;;;;;;;;4986267;28;20225;-60
2022/04/05 06:07:13;;;;;;;10.07;8.05;;;;;;;;;;4978733;28;20728;-60
2022/04/05 06:09:39;;;;;;;12.98;8.60;;;;;;;;;;4977807;28;20244;-59
2022/04/05 06:12:05;;;;;;;13.65;9.23;;;;;;;;;;4977658;28;20243;-60
2022/04/05 06:14:30;;;;;;;12.35;8.60;;;;;;;;;;5002718;28;20217;-60
2022/04/05 06:16:55;;;;;;;10.32;8.60;;;;;;;;;;5004271;28;20212;-60
2022/04/05 06:19:21;;;;;;;12.18;9.20;;;;;;;;;;5004791;28;20215;-60
2022/04/05 06:21:46;;;;;;;10.30;8.77;;;;;;;;;;5001678;28;20212;-60
2022/04/05 06:24:11;;;;;;;12.45;9.25;;;;;;;;;;4984592;28;20727;-61
2022/04/05 06:26:37;;;;;;;10.02;8.52;;;;;;;;;;4985644;28;20221;-59
2022/04/05 06:29:02;;;;;;;12.43;9.32;;;;;;;;;;4981655;28;20235;-59
2022/04/05 06:31:27;;;;;;;12.20;8.80;;;;;;;;;;4981225;28;20268;-58
2022/04/05 06:33:53;;;;;;;11.15;8.65;;;;;;;;;;4977729;28;20300;-59
2022/04/05 06:36:18;;;;;;;11.93;8.60;;;;;;;;;;4979569;28;20225;-59
2022/04/05 06:38:43;;;;;;;12.32;8.48;;;;;;;;;;4982779;28;20311;-59
2022/04/05 06:41:09;;;;;;;11.63;8.25;;;;;;;;;;4983479;28;20583;-59
2022/04/05 06:43:34;;;;;;;14.13;9.70;;;;;;;;;;5001770;28;20822;-59
2022/04/05 06:45:59;;;;;;;11.13;8.80;;;;;;;;;;5002897;28;20212;-59
2022/04/05 06:48:24;;;;;;;13.25;9.88;;;;;;;;;;4996462;28;20697;-59
2022/04/05 06:50:50;;;;;;;14.93;10.13;;;;;;;;;;4982009;28;20213;-59
2022/04/05 06:53:16;;;;;;;14.63;10.73;;;;;;;;;;4975504;28;20225;-59
2022/04/05 06:55:42;;;;;;;13.40;10.52;;;;;;;;;;4976139;28;20233;-59
2022/04/05 06:58:08;;;;;;;11.95;9.10;;;;;;;;;;4975728;28;20595;-59
2022/04/05 07:00:33;;;;;;;12.20;9.02;;;;;;;;;;4984355;28;20251;-59
2022/04/05 07:02:59;;;;;;;10.85;9.15;;;;;;;;;;5001059;28;20275;-59
2022/04/05 07:05:24;;;;;;;11.55;8.80;;;;;;;;;;5011195;28;20211;-59
2022/04/05 07:07:49;;;;;;;11.40;9.00;;;;;;;;;;5012037;28;20351;-59
2022/04/05 07:10:15;;;;;;;10.73;8.23;;;;;;;;;;5011702;28;20212;-59
2022/04/05 07:12:41;;;;;;;9.18;7.47;;;;;;;;;;5011395;28;20227;-59
2022/04/05 07:15:07;;;;;;;10.52;7.25;;;;;;;;;;5011402;28;20228;-59
2022/04/05 07:17:32;;;;;;;11.30;8.00;;;;;;;;;;5011881;28;20236;-59
2022/04/05 07:19:58;;;;;;;11.13;7.53;;;;;;;;;;5011260;28;20694;-59
2022/04/05 07:22:25;;;;;;;9.45;6.55;;;;;;;;;;5011237;28;20912;-59
2022/04/05 07:24:50;;;;;;;11.25;8.25;;;;;;;;;;5011894;28;20224;-59
2022/04/05 07:27:16;;;;;;;12.00;8.50;;;;;;;;;;5010381;28;20216;-58
2022/04/05 07:29:41;;;;;;;12.55;8.52;;;;;;;;;;5011706;28;20212;-58
2022/04/05 07:32:06;;;;;;;11.55;8.00;;;;;;;;;;5011340;28;20230;-59
2022/04/05 07:34:32;;;;;;;12.50;8.10;;;;;;;;;;5010867;28;20221;-59
2022/04/05 07:36:57;;;;;;;14.07;8.70;;;;;;;;;;5011349;28;20252;-59
2022/04/05 07:39:23;;;;;;;12.88;8.60;;;;;;;;;;5011244;28;20216;-59
2022/04/05 07:41:48;;;;;;;14.23;7.55;;;;;;;;;;5009679;28;20220;-59
2022/04/05 07:44:14;;;;;;;11.45;7.53;;;;;;;;;;5010951;28;20303;-59
2022/04/05 07:46:39;;;;;;;13.80;8.13;;;;;;;;;;5011322;28;20232;-59
2022/04/05 07:49:04;;;;;;;12.45;7.82;;;;;;;;;;5010136;28;20251;-59
2022/04/05 07:51:29;;;;;;;11.98;7.75;;;;;;;;;;5010998;28;20232;-59
2022/04/05 07:53:55;;;;;;;15.77;8.13;;;;;;;;;;5010814;28;20205;-59
2022/04/05 07:56:20;;;;;;;14.10;7.80;;;;;;;;;;5010851;28;20240;-59
2022/04/05 07:58:45;;;;;;;12.80;7.82;;;;;;;;;;5011154;28;20295;-59
2022/04/05 08:01:11;;;;;;;14.60;7.75;;;;;;;;;;5009947;28;20282;-59
2022/04/05 08:03:36;;;;;;;11.10;7.18;;;;;;;;;;5011009;28;20220;-59
2022/04/05 08:06:02;;;;;;;12.07;7.88;;;;;;;;;;5010461;28;20220;-59
2022/04/05 08:08:28;;;;;;;13.73;6.82;;;;;;;;;;5010402;28;20212;-59
2022/04/05 08:10:54;;;;;;;11.38;7.95;;;;;;;;;;5009804;28;20212;-59
2022/04/05 08:13:19;;;;;;;13.70;7.00;;;;;;;;;;5010369;28;20235;-59
2022/04/05 08:15:44;;;;;;;12.50;7.75;;;;;;;;;;5009849;28;20234;-59
2022/04/05 08:18:10;;;;;;;10.68;6.40;;;;;;;;;;5010589;28;20291;-59
2022/04/05 08:20:36;;;;;;;10.27;6.40;;;;;;;;;;5010681;28;20228;-59
2022/04/05 08:23:02;;;;;;;14.35;7.60;;;;;;;;;;5009714;28;20223;-59
2022/04/05 08:25:28;;;;;;;9.50;5.80;;;;;;;;;;5011007;28;20291;-59
2022/04/05 08:27:54;;;;;;;9.40;5.78;;;;;;;;;;5010850;28;20212;-59
2022/04/05 08:30:20;;;;;;;9.80;6.00;;;;;;;;;;5009632;28;20232;-59
2022/04/05 08:32:46;;;;;;;10.20;5.90;;;;;;;;;;5010725;28;20220;-59
2022/04/05 08:35:12;;;;;;;11.27;5.65;;;;;;;;;;5010001;28;20781;-59
2022/04/05 08:37:38;;;;;;;10.85;5.90;;;;;;;;;;5010221;28;20208;-59
2022/04/05 08:40:06;;;;;;;10.50;5.85;;;;;;;;;;5010253;28;20574;-60
2022/04/05 08:42:38;;;;;;;10.27;6.03;;;;;;;;;;5010839;28;20204;-59
2022/04/05 08:45:06;;;;;;;7.85;4.90;;;;;;;;;;5008075;28;20606;-60
2022/04/05 08:47:32;;;;;;;8.52;5.38;;;;;;;;;;5010629;28;20216;-59
2022/04/05 08:49:57;;;;;;;11.05;5.72;;;;;;;;;;5009411;28;20239;-59
2022/04/05 08:52:22;;;;;;;10.55;5.65;;;;;;;;;;5008063;28;20726;-59
2022/04/05 08:54:48;;;;;;;7.90;5.25;;;;;;;;;;5009130;28;20259;-59
2022/04/05 08:57:13;;;;;;;11.40;5.32;;;;;;;;;;5009562;28;20258;-59
2022/04/05 08:59:38;;;;;;;11.38;5.45;;;;;;;;;;5010281;28;20213;-59
2022/04/05 09:02:03;;;;;;;8.88;4.80;;;;;;;;;;5010149;28;20217;-60
2022/04/05 09:04:35;;;;;;;9.20;5.05;;;;;;;;;;5009629;28;20216;-59
2022/04/05 09:07:18;;;;;;;8.25;4.68;;;;;;;;;;5010636;28;20220;-59
2022/04/05 09:09:44;;;;;;;9.00;4.43;;;;;;;;;;5010126;28;20212;-59
2022/04/05 09:12:16;;;;;;;8.80;4.88;;;;;;;;;;5012445;28;20207;-59
2022/04/05 09:14:41;;;;;;;7.13;4.60;;;;;;;;;;4994695;28;20298;-60
2022/04/05 09:17:09;;;;;;;8.57;4.68;;;;;;;;;;4992872;28;20678;-60
2022/04/05 09:19:42;;;;;;;8.65;5.22;;;;;;;;;;4992436;28;20573;-59
2022/04/05 09:22:07;;;;;;;10.07;4.97;;;;;;;;;;4994266;28;20217;-60
2022/04/05 09:24:33;;;;;;;10.73;5.15;;;;;;;;;;4993187;28;20292;-60
2022/04/05 09:26:58;;;;;;;10.30;4.95;;;;;;;;;;4993990;28;20209;-59
2022/04/05 09:29:36;;;;;;;11.32;5.05;;;;;;;;;;4992749;28;20335;-60
2022/04/05 09:32:01;;;;;;;8.98;4.68;;;;;;;;;;4994128;28;20221;-60
2022/04/05 09:34:26;;;;;;;9.48;4.78;;;;;;;;;;4993104;28;20232;-60
2022/04/05 09:36:52;;;;;;;10.32;4.70;;;;;;;;;;4994461;28;20220;-59
2022/04/05 09:39:17;;;;;;;6.47;4.30;;;;;;;;;;4993822;28;20299;-60
2022/04/05 09:41:43;;;;;;;13.63;5.25;;;;;;;;;;4993759;28;20224;-59
2022/04/05 09:44:08;;;;;;;9.10;4.45;;;;;;;;;;4993742;28;20220;-60
2022/04/05 09:46:35;;;;;;;8.88;4.65;;;;;;;;;;4993380;28;20720;-59
2022/04/05 09:49:07;;;;;;;7.45;4.40;;;;;;;;;;5012786;28;20217;-60
2022/04/05 09:51:34;;;;;;;7.20;3.95;;;;;;;;;;5013502;28;20224;-59
2022/04/05 09:54:00;;;;;;;7.30;4.55;;;;;;;;;;5013040;28;20212;-59
2022/04/05 09:56:27;;;;;;;7.95;3.42;;;;;;;;;;5013178;28;20320;-59
2022/04/05 09:58:54;;;;;;;4.82;2.58;;;;;;;;;;5013468;28;20590;-59
2022/04/05 10:01:20;;;;;;;5.60;2.80;;;;;;;;;;5011194;28;20260;-58
2022/04/05 10:03:59;;;;;;;5.28;2.53;;;;;;;;;;5013519;28;20683;-59
2022/04/05 10:06:25;;;;;;;5.80;2.50;;;;;;;;;;5012722;28;20216;-59
2022/04/05 10:08:51;;;;;;;4.20;2.85;;;;;;;;;;5011402;28;20212;-59
2022/04/05 10:11:17;;;;;;;4.03;2.20;;;;;;;;;;5011434;28;20215;-59
2022/04/05 10:13:43;;;;;;;4.55;2.40;;;;;;;;;;5013171;28;20679;-59
2022/04/05 10:16:08;;;;;;;6.78;4.00;;;;;;;;;;5011870;28;20229;-59
2022/04/05 10:18:34;;;;;;;27.05;17.17;;;;;;;;;;5011667;28;20733;-59
2022/04/05 10:21:00;;;;;;;71.40;43.92;;;;;;;;;;5012947;28;20235;-59
2022/04/05 10:23:25;;;;;;;6.50;4.03;;;;;;;;;;5011828;28;20200;-59
2022/04/05 10:25:51;;;;;;;20.48;11.40;;;;;;;;;;5011727;28;20263;-59
2022/04/05 10:28:19;;;;;;;19.80;13.05;;;;;;;;;;5012703;28;20300;-59
2022/04/05 10:30:44;;;;;;;22.65;15.05;;;;;;;;;;5012117;28;20219;-59
2022/04/05 10:33:12;;;;;;;11.88;8.85;;;;;;;;;;5011146;28;20217;-60
2022/04/05 10:35:40;;;;;;;5.38;3.30;;;;;;;;;;5010910;28;20294;-59
2022/04/05 10:38:12;;;;;;;10.43;4.20;;;;;;;;;;5011274;28;20691;-60
2022/04/05 10:40:37;;;;;;;7.30;3.70;;;;;;;;;;5012726;28;20217;-59
2022/04/05 10:43:14;;;;;;;6.97;5.25;;;;;;;;;;5011638;28;20205;-60
2022/04/05 10:45:41;;;;;;;7.90;5.35;;;;;;;;;;5011340;28;20702;-59
2022/04/05 10:48:11;;;;;;;6.35;4.40;;;;;;;;;;5012091;28;20215;-60
2022/04/05 10:50:37;;;;;;;4.53;3.03;;;;;;;;;;5011482;28;20219;-59
2022/04/05 10:53:19;;;;;;;5.32;2.90;;;;;;;;;;5012153;28;20213;-60
2022/04/05 10:56:03;;;;;;;3.78;2.83;;;;;;;;;;5011119;28;20252;-59
2022/04/05 10:58:29;;;;;;;5.75;3.70;;;;;;;;;;5011463;28;20209;-59
2022/04/05 11:01:12;;;;;;;6.95;3.95;;;;;;;;;;5012471;28;20212;-59
2022/04/05 11:03:38;;;;;;;7.53;4.93;;;;;;;;;;5011916;28;20227;-59
2022/04/05 11:06:03;;;;;;;6.18;4.10;;;;;;;;;;5010862;28;20205;-59
2022/04/05 11:08:29;;;;;;;6.05;4.00;;;;;;;;;;5012273;28;20295;-59
2022/04/05 11:10:55;;;;;;;8.32;4.53;;;;;;;;;;5010061;28;20212;-59
2022/04/05 11:13:21;;;;;;;8.70;4.30;;;;;;;;;;5011544;28;20224;-59
2022/04/05 11:15:48;;;;;;;7.10;5.10;;;;;;;;;;5012021;28;20231;-59
2022/04/05 11:18:14;;;;;;;6.13;4.40;;;;;;;;;;5010963;28;20296;-59
2022/04/05 11:20:41;;;;;;;7.30;5.15;;;;;;;;;;5011878;28;20299;-59
2022/04/05 11:23:07;;;;;;;7.53;5.15;;;;;;;;;;5010328;28;20212;-60
2022/04/05 11:25:32;;;;;;;9.85;5.32;;;;;;;;;;5011090;28;20683;-59
2022/04/05 11:28:11;;;;;;;10.57;5.80;;;;;;;;;;5012238;28;20335;-59
2022/04/05 11:30:38;;;;;;;8.77;5.35;;;;;;;;;;5011373;28;20220;-59
2022/04/05 11:33:09;;;;;;;8.38;5.78;;;;;;;;;;5010641;28;20278;-59
2022/04/05 11:35:42;;;;;;;9.05;5.40;;;;;;;;;;5011282;28;20228;-59
2022/04/05 11:38:11;;;;;;;8.95;5.00;;;;;;;;;;5009949;28;20205;-59
2022/04/05 11:40:40;;;;;;;9.20;4.68;;;;;;;;;;5011990;28;20305;-60
2022/04/05 11:43:06;;;;;;;8.02;4.75;;;;;;;;;;5013591;28;20653;-60
2022/04/05 11:45:31;;;;;;;9.33;4.80;;;;;;;;;;5010976;28;20446;-60
2022/04/05 11:47:56;;;;;;;6.50;4.63;;;;;;;;;;5012781;28;20216;-59
2022/04/05 11:50:22;;;;;;;6.88;4.03;;;;;;;;;;5012963;28;20216;-59
2022/04/05 11:52:47;;;;;;;7.68;4.32;;;;;;;;;;5013148;28;20242;-59
2022/04/05 11:58:02;;;;;;;10.65;6.22;;;;;;;;;;5012213;28;20263;-59
2022/04/05 12:00:27;;;;;;;11.68;7.15;;;;;;;;;;5012713;28;20204;-60
2022/04/05 12:03:03;;;;;;;15.93;11.65;;;;;;;;;;5020565;28;20580;-60
2022/04/05 12:05:44;;;;;;;8.90;5.00;;;;;;;;;;5027680;28;20554;-59
2022/04/05 12:08:09;;;;;;;12.70;6.85;;;;;;;;;;5008200;28;20618;-59
2022/04/05 12:10:35;;;;;;;15.57;11.32;;;;;;;;;;5011195;28;20238;-60
2022/04/05 12:13:00;;;;;;;25.15;17.70;;;;;;;;;;5008440;28;20219;-60
2022/04/05 12:15:25;;;;;;;26.60;19.85;;;;;;;;;;5009259;28;20739;-59
2022/04/05 12:17:51;;;;;;;11.48;10.25;;;;;;;;;;4991977;28;20747;-59
2022/04/05 12:20:18;;;;;;;11.20;5.25;;;;;;;;;;4993005;28;20243;-60
2022/04/05 12:22:43;;;;;;;9.57;4.88;;;;;;;;;;4992625;28;20233;-60
2022/04/05 12:25:08;;;;;;;9.63;5.22;;;;;;;;;;4992881;28;20267;-60
2022/04/05 12:27:34;;;;;;;9.57;4.93;;;;;;;;;;4993305;28;20288;-60
2022/04/05 12:30:01;;;;;;;8.90;4.97;;;;;;;;;;4992648;28;20217;-60
2022/04/05 12:32:33;;;;;;;10.75;4.75;;;;;;;;;;4992785;28;20206;-60
2022/04/05 12:34:58;;;;;;;9.90;4.78;;;;;;;;;;4991708;28;20718;-60
2022/04/05 12:37:23;;;;;;;9.57;4.75;;;;;;;;;;4990694;28;20217;-60
2022/04/05 12:39:50;;;;;;;8.68;4.68;;;;;;;;;;4993233;28;20213;-60
2022/04/05 12:42:16;;;;;;;7.93;4.88;;;;;;;;;;4992112;28;20217;-60
2022/04/05 12:44:42;;;;;;;8.55;4.75;;;;;;;;;;4993179;28;20223;-60
2022/04/05 12:47:09;;;;;;;8.80;5.15;;;;;;;;;;4999466;28;20204;-60
2022/04/05 12:49:37;;;;;;;8.75;4.70;;;;;;;;;;5016276;28;20212;-59
2022/04/05 12:52:17;;;;;;;8.30;5.00;;;;;;;;;;5016042;28;20229;-60
2022/04/05 12:54:47;;;;;;;7.82;4.78;;;;;;;;;;5016709;28;20224;-60
2022/04/05 12:57:13;;;;;;;10.63;5.10;;;;;;;;;;5015731;28;20299;-60
2022/04/05 12:59:39;;;;;;;8.77;5.15;;;;;;;;;;5012959;28;20220;-60
2022/04/05 13:02:04;;;;;;;6.65;4.47;;;;;;;;;;5015670;28;20224;-60
2022/04/05 13:04:29;;;;;;;7.72;4.60;;;;;;;;;;5015792;28;20268;-59
2022/04/05 13:06:59;;;;;;;9.70;5.03;;;;;;;;;;5016420;28;20220;-59
2022/04/05 13:09:30;;;;;;;7.88;4.95;;;;;;;;;;5015943;28;20212;-60
2022/04/05 13:12:07;;;;;;;6.93;4.38;;;;;;;;;;5015749;28;20223;-60
2022/04/05 13:14:32;;;;;;;7.40;4.75;;;;;;;;;;5016006;28;20211;-60
2022/04/05 13:16:59;;;;;;;7.32;4.75;;;;;;;;;;5015900;28;20215;-60
2022/04/05 13:19:24;;;;;;;8.57;4.60;;;;;;;;;;5011755;28;20655;-60
2022/04/05 13:21:50;;;;;;;8.40;4.70;;;;;;;;;;5016046;28;20216;-60
2022/04/05 13:24:16;;;;;;;7.55;4.60;;;;;;;;;;5015732;28;20216;-60
2022/04/05 13:26:42;;;;;;;8.95;4.90;;;;;;;;;;5015643;28;20220;-60
2022/04/05 13:29:13;;;;;;;8.68;5.57;;;;;;;;;;5015544;28;20220;-60
2022/04/05 13:31:47;;;;;;;9.05;7.32;;;;;;;;;;5015124;28;20213;-60
2022/04/05 13:34:12;;;;;;;7.45;4.55;;;;;;;;;;5015696;28;20676;-60
2022/04/05 13:36:38;;;;;;;7.18;4.57;;;;;;;;;;5015989;28;20235;-60
2022/04/05 13:39:03;;;;;;;8.52;4.60;;;;;;;;;;5014684;28;20684;-60
2022/04/05 13:41:28;;;;;;;6.72;4.65;;;;;;;;;;5013790;28;20216;-60
2022/04/05 13:43:56;;;;;;;7.40;4.55;;;;;;;;;;5015888;28;20220;-60
2022/04/05 13:46:22;;;;;;;6.22;4.57;;;;;;;;;;5014668;28;20220;-60
2022/04/05 13:48:47;;;;;;;7.22;4.88;;;;;;;;;;5015721;28;20295;-60
2022/04/05 13:51:12;;;;;;;7.47;4.50;;;;;;;;;;5015032;28;20228;-60
2022/04/05 13:53:38;;;;;;;7.10;4.90;;;;;;;;;;5014660;28;20223;-60
2022/04/05 13:56:03;;;;;;;8.35;5.40;;;;;;;;;;5014988;28;20247;-60
2022/04/05 13:58:29;;;;;;;6.80;4.53;;;;;;;;;;5015227;28;20256;-60
2022/04/05 14:00:54;;;;;;;6.30;3.92;;;;;;;;;;5014142;28;20213;-60
2022/04/05 14:03:19;;;;;;;8.35;4.53;;;;;;;;;;5015069;28;21731;-60
2022/04/05 14:05:44;;;;;;;8.88;4.70;;;;;;;;;;5015194;28;20683;-60
2022/04/05 14:08:10;;;;;;;8.00;4.97;;;;;;;;;;5014160;28;20217;-60
2022/04/05 14:10:35;;;;;;;11.07;5.70;;;;;;;;;;5015450;28;20219;-60
2022/04/05 14:13:01;;;;;;;8.18;4.90;;;;;;;;;;5014526;28;20220;-60
2022/04/05 14:15:26;;;;;;;6.90;4.50;;;;;;;;;;5014252;28;20232;-60
2022/04/05 14:17:51;;;;;;;7.90;4.25;;;;;;;;;;5014925;28;20215;-60
2022/04/05 14:20:16;;;;;;;7.03;4.07;;;;;;;;;;5014549;28;20208;-59
2022/04/05 14:22:42;;;;;;;7.13;4.28;;;;;;;;;;5014465;28;20347;-60
2022/04/05 14:25:08;;;;;;;7.00;4.07;;;;;;;;;;5014416;28;20219;-60
2022/04/05 14:27:33;;;;;;;7.15;5.45;;;;;;;;;;5014962;28;20216;-60
2022/04/05 14:29:59;;;;;;;7.57;4.82;;;;;;;;;;5014389;28;20243;-60
2022/04/05 14:32:24;;;;;;;7.03;5.00;;;;;;;;;;5014251;28;20220;-60
2022/04/05 14:34:49;;;;;;;6.75;5.03;;;;;;;;;;5014352;28;20238;-60